Time;durP1;ratioP1;P1;durP2;ratioP2;P2;SDS_P1;SDS_P2;PMS_P1;PMS_P2;Temp;Humidity;BMP_temperature;BMP_pressure;BME280_temperature;BME280_humidity;BME280_pressure;Samples;Min_cycle;Max_cycle;Signal;HPM_P1;HPM_P2
2022/06/16 00:02:05;;;;;;;4.25;3.42;;;;;;;21.23;51.57;98572.59;5031269;27;104521;-70
2022/06/16 00:04:34;;;;;;;3.03;2.83;;;;;;;21.27;51.65;98576.59;5036554;27;104127;-70
2022/06/16 00:07:03;;;;;;;4.37;3.20;;;;;;;21.29;51.47;98577.25;5031313;27;103459;-71
2022/06/16 00:09:32;;;;;;;3.38;3.08;;;;;;;21.28;51.86;98575.56;5030297;27;102925;-69
2022/06/16 00:12:00;;;;;;;4.70;3.60;;;;;;;21.21;52.28;98573.78;5034712;27;103048;-69
2022/06/16 00:14:29;;;;;;;5.70;3.70;;;;;;;21.21;52.36;98580.00;5036450;27;104070;-69
2022/06/16 00:16:58;;;;;;;3.08;2.80;;;;;;;21.19;52.53;98582.00;5044058;27;103618;-69
2022/06/16 00:19:26;;;;;;;3.30;3.00;;;;;;;21.19;53.00;98581.22;5036447;27;104051;-70
2022/06/16 00:21:54;;;;;;;3.55;3.00;;;;;;;21.20;52.81;98578.31;5037830;27;103004;-69
2022/06/16 00:24:26;;;;;;;3.78;2.90;;;;;;;21.14;53.42;98587.09;5030669;27;103229;-69
2022/06/16 00:26:56;;;;;;;3.50;3.20;;;;;;;21.09;53.12;98580.59;5032781;27;103464;-69
2022/06/16 00:29:24;;;;;;;3.07;2.87;;;;;;;21.08;52.81;98578.94;5032679;27;102688;-69
2022/06/16 00:31:53;;;;;;;3.33;3.03;;;;;;;20.99;52.84;98578.13;5031313;27;104139;-69
2022/06/16 00:34:21;;;;;;;3.80;3.38;;;;;;;20.76;53.08;98575.44;5028574;27;104496;-68
2022/06/16 00:36:49;;;;;;;3.92;3.35;;;;;;;20.81;53.15;98577.59;5027232;27;103191;-68
2022/06/16 00:39:20;;;;;;;4.10;3.30;;;;;;;20.76;52.93;98575.44;5035742;27;102990;-70
2022/06/16 00:41:49;;;;;;;2.90;2.60;;;;;;;20.82;53.07;98573.91;5028130;27;102783;-69
2022/06/16 00:44:39;;;;;;;2.67;2.47;;;;;;;20.86;53.09;98568.97;5032591;27;103303;-69
2022/06/16 00:47:07;;;;;;;2.80;2.58;;;;;;;20.88;53.07;98577.72;5034471;27;103165;-69
2022/06/16 00:49:39;;;;;;;2.92;2.72;;;;;;;20.89;53.27;98577.53;5031839;27;102784;-69
2022/06/16 00:52:12;;;;;;;3.95;3.60;;;;;;;20.70;54.49;98570.78;5035144;27;102980;-68
2022/06/16 00:54:46;;;;;;;4.15;3.75;;;;;;;20.62;55.16;98573.53;5027398;27;103289;-69
2022/06/16 00:57:19;;;;;;;3.78;3.47;;;;;;;20.57;55.44;98577.75;5033205;27;103384;-69
2022/06/16 00:59:48;;;;;;;3.72;3.42;;;;;;;20.33;55.77;98567.13;5032588;27;103737;-69
2022/06/16 01:02:20;;;;;;;3.40;3.10;;;;;;;20.33;56.25;98575.19;5032554;27;102855;-69
2022/06/16 01:04:53;;;;;;;3.42;3.13;;;;;;;20.37;56.26;98573.84;5029939;27;103265;-69
2022/06/16 01:07:25;;;;;;;4.22;3.83;;;;;;;19.97;57.35;98572.97;5032853;27;104171;-69
2022/06/16 01:09:55;;;;;;;3.90;3.50;;;;;;;19.78;57.71;98573.38;5031434;27;102975;-69
2022/06/16 01:16:00;;;;;;;4.75;4.22;;;;;;;19.48;57.55;98579.47;5026574;27;103078;-69
2022/06/16 01:18:39;;;;;;;4.55;3.55;;;;;;;19.15;59.10;98569.72;5031489;27;103371;-69
2022/06/16 01:21:16;;;;;;;4.80;4.10;;;;;;;18.48;61.46;98577.84;5049920;27;103060;-68
2022/06/16 01:24:12;;;;;;;5.80;4.10;;;;;;;19.13;59.74;98572.59;5033081;27;103027;-69
2022/06/16 01:27:20;;;;;;;5.03;4.15;;;;;;;18.89;60.28;98570.72;5027721;27;104620;-70
2022/06/16 01:29:57;;;;;;;4.87;4.17;;;;;;;19.16;59.14;98560.69;5030905;27;103468;-69
2022/06/16 01:32:39;;;;;;;5.70;4.32;;;;;;;18.64;60.60;98571.69;5029944;27;102659;-69
2022/06/16 01:35:15;;;;;;;3.67;3.33;;;;;;;19.11;60.00;98562.03;5029643;27;103331;-68
2022/06/16 01:37:56;;;;;;;3.50;3.10;;;;;;;19.42;58.98;98566.75;5028922;27;104203;-70
2022/06/16 01:40:31;;;;;;;3.63;3.33;;;;;;;19.51;58.24;98571.06;5032552;27;103692;-70
2022/06/16 01:43:09;;;;;;;2.85;2.65;;;;;;;19.64;57.83;98558.00;5022316;27;103100;-69
2022/06/16 01:45:47;;;;;;;3.33;2.97;;;;;;;19.66;58.15;98553.28;5030851;27;104186;-69
2022/06/16 01:48:21;;;;;;;3.75;3.45;;;;;;;19.52;58.57;98552.16;5029055;27;105469;-70
2022/06/16 01:50:54;;;;;;;4.00;3.60;;;;;;;19.52;58.49;98551.31;5027636;27;103158;-69
2022/06/16 01:53:27;;;;;;;4.80;4.30;;;;;;;19.30;58.94;98551.97;5028985;27;103221;-68
2022/06/16 01:56:02;;;;;;;4.32;3.97;;;;;;;19.33;59.16;98543.63;5028483;27;103930;-69
2022/06/16 01:58:37;;;;;;;3.80;3.40;;;;;;;19.37;59.30;98548.44;5031929;27;104183;-69
2022/06/16 02:01:15;;;;;;;3.35;3.05;;;;;;;19.45;58.81;98555.69;5042064;27;104188;-69
2022/06/16 02:03:50;;;;;;;4.80;4.20;;;;;;;18.91;61.56;98550.00;5045653;27;102807;-69
2022/06/16 02:06:23;;;;;;;5.00;4.50;;;;;;;18.90;62.57;98553.66;5030003;27;103955;-69
2022/06/16 02:08:56;;;;;;;5.20;4.70;;;;;;;18.95;63.09;98548.66;5027074;27;104019;-69
2022/06/16 02:11:28;;;;;;;4.10;3.80;;;;;;;19.17;62.10;98541.81;5031668;27;105681;-69
2022/06/16 02:13:59;;;;;;;6.35;5.22;;;;;;;18.95;64.14;98543.28;5030656;27;102717;-69
2022/06/16 02:16:36;;;;;;;7.32;4.85;;;;;;;19.15;63.54;98537.59;5034665;27;104138;-69
2022/06/16 02:19:11;;;;;;;4.55;4.15;;;;;;;19.29;63.88;98540.44;5045865;27;105684;-69
2022/06/16 02:21:42;;;;;;;4.80;4.40;;;;;;;19.35;63.97;98544.28;5026128;27;103193;-69
2022/06/16 02:24:13;;;;;;;7.00;5.82;;;;;;;19.10;66.31;98544.31;5029405;27;102668;-68
2022/06/16 02:26:42;;;;;;;6.57;5.70;;;;;;;18.99;67.27;98541.97;5027957;27;103036;-69
2022/06/16 02:29:25;;;;;;;6.38;5.80;;;;;;;19.27;65.89;98536.25;5027721;27;103338;-69
2022/06/16 02:32:08;;;;;;;6.70;6.00;;;;;;;19.13;67.17;98528.91;5033621;27;103370;-69
2022/06/16 02:34:48;;;;;;;7.47;6.68;;;;;;;18.96;68.97;98534.28;5025115;27;102536;-69
2022/06/16 02:37:30;;;;;;;6.87;6.17;;;;;;;18.83;69.86;98531.25;5029508;27;103372;-69
2022/06/16 02:40:16;;;;;;;6.70;6.05;;;;;;;18.88;69.79;98530.75;5034393;27;103291;-68
2022/06/16 02:42:54;;;;;;;5.28;4.80;;;;;;;19.25;67.84;98522.19;5024767;27;103154;-68
2022/06/16 02:45:33;;;;;;;5.30;4.80;;;;;;;19.38;66.67;98525.19;5030874;27;102819;-69
2022/06/16 02:48:10;;;;;;;5.63;5.13;;;;;;;19.33;67.45;98522.19;5036372;27;102916;-69
2022/06/16 02:50:53;;;;;;;6.00;5.43;;;;;;;19.32;67.43;98517.81;5022867;27;104212;-68
2022/06/16 02:53:32;;;;;;;6.13;5.57;;;;;;;19.32;68.13;98513.31;5031426;27;104161;-69
2022/06/16 02:56:09;;;;;;;7.13;6.40;;;;;;;19.09;69.66;98509.66;5033800;27;102734;-68
2022/06/16 02:58:42;;;;;;;8.05;7.20;;;;;;;18.56;72.20;98515.50;5028690;27;102795;-69
2022/06/16 03:01:11;;;;;;;6.85;6.25;;;;;;;18.90;71.06;98513.53;5026510;27;103240;-68
2022/06/16 03:03:41;;;;;;;6.53;5.68;;;;;;;19.27;69.49;98525.53;5028152;27;103230;-69
2022/06/16 03:06:12;;;;;;;6.47;5.43;;;;;;;19.42;68.40;98530.06;5049597;27;102982;-69
2022/06/16 03:08:49;;;;;;;5.30;4.80;;;;;;;19.44;68.71;98524.53;5023968;27;102774;-70
2022/06/16 03:11:17;;;;;;;5.18;4.78;;;;;;;19.48;68.55;98512.50;5032802;27;103279;-70
2022/06/16 03:13:48;;;;;;;5.50;5.07;;;;;;;19.52;68.73;98513.81;5032611;27;103194;-69
2022/06/16 03:16:35;;;;;;;6.07;5.57;;;;;;;19.45;68.86;98512.81;5031347;27;103174;-70
2022/06/16 03:19:06;;;;;;;7.38;6.60;;;;;;;18.93;70.70;98521.22;5032733;27;102858;-70
2022/06/16 03:21:34;;;;;;;6.27;5.77;;;;;;;19.05;71.15;98517.22;5031409;27;103958;-69
2022/06/16 03:24:04;;;;;;;6.72;6.13;;;;;;;18.95;71.49;98518.34;5031640;27;103243;-69
2022/06/16 03:26:33;;;;;;;7.40;6.43;;;;;;;18.93;71.42;98521.22;5028642;27;102791;-69
2022/06/16 03:29:04;;;;;;;5.72;5.18;;;;;;;19.14;70.26;98525.22;5033625;27;102706;-69
2022/06/16 03:31:33;;;;;;;5.43;5.00;;;;;;;19.28;69.77;98532.56;5030831;27;103540;-60
2022/06/16 03:34:01;;;;;;;5.78;5.28;;;;;;;19.23;69.33;98533.06;5027076;27;103229;-61
2022/06/16 03:36:37;;;;;;;6.30;5.70;;;;;;;18.80;70.86;98541.47;5038829;27;103099;-61
2022/06/16 03:39:10;;;;;;;8.80;6.80;;;;;;;18.74;71.05;98539.44;5024073;27;103084;-61
2022/06/16 03:41:47;;;;;;;6.80;6.18;;;;;;;18.72;71.43;98539.63;5045666;27;103198;-61
2022/06/16 03:44:17;;;;;;;5.15;4.75;;;;;;;19.00;70.66;98535.59;5034412;27;104332;-61
2022/06/16 03:46:46;;;;;;;7.22;6.30;;;;;;;18.94;70.48;98547.00;5030389;27;102637;-61
2022/06/16 03:49:18;;;;;;;5.60;5.10;;;;;;;19.20;70.04;98548.66;5022488;27;102762;-61
2022/06/16 03:51:51;;;;;;;5.05;4.65;;;;;;;19.37;69.28;98553.00;5027125;27;103304;-60
2022/06/16 03:54:24;;;;;;;4.47;4.07;;;;;;;19.53;68.13;98559.19;5026157;27;103405;-61
2022/06/16 03:56:58;;;;;;;4.97;4.53;;;;;;;19.60;68.48;98551.28;5028870;27;103101;-60
2022/06/16 03:59:27;;;;;;;5.20;4.80;;;;;;;19.57;68.57;98557.81;5024982;27;104229;-60
2022/06/16 04:02:00;;;;;;;5.85;5.35;;;;;;;19.40;69.43;98558.84;5023949;27;103468;-60
2022/06/16 04:04:32;;;;;;;5.50;5.00;;;;;;;19.52;68.93;98570.06;5028708;27;104599;-60
2022/06/16 04:07:05;;;;;;;4.17;3.80;;;;;;;19.73;68.45;98570.38;5026287;27;102813;-60
2022/06/16 04:09:37;;;;;;;3.67;3.38;;;;;;;19.96;66.61;98579.31;5021580;27;104210;-60
2022/06/16 04:12:09;;;;;;;4.40;4.10;;;;;;;20.12;66.47;98576.59;5017851;27;105068;-60
2022/06/16 04:14:39;;;;;;;4.53;4.18;;;;;;;20.22;66.99;98582.59;5026076;27;103509;-61
2022/06/16 04:17:07;;;;;;;6.18;5.57;;;;;;;20.17;67.27;98590.31;5025415;27;102683;-61
2022/06/16 04:20:11;;;;;;;4.30;4.00;;;;;;;20.31;66.33;98590.63;5032942;27;102892;-61
2022/06/16 04:22:51;;;;;;;6.10;5.63;;;;;;;20.26;66.18;98596.53;5028758;27;103660;-61
2022/06/16 04:25:30;;;;;;;4.57;4.20;;;;;;;20.31;66.20;98601.34;5028049;27;103172;-61
2022/06/16 04:28:09;;;;;;;4.87;4.07;;;;;;;20.48;66.08;98601.09;5022299;27;103028;-60
2022/06/16 04:30:44;;;;;;;4.90;4.43;;;;;;;20.47;66.57;98593.22;5023371;27;102834;-61
2022/06/16 04:33:13;;;;;;;5.53;4.82;;;;;;;20.46;66.87;98594.25;5023310;27;103497;-61
2022/06/16 04:35:42;;;;;;;5.90;5.30;;;;;;;20.32;67.36;98605.72;5033542;27;103277;-61
2022/06/16 04:38:14;;;;;;;5.07;4.60;;;;;;;20.51;66.88;98603.44;5010889;27;103098;-61
2022/06/16 04:40:43;;;;;;;5.87;5.20;;;;;;;20.61;66.08;98609.41;5027874;27;103439;-61
2022/06/16 04:43:15;;;;;;;5.30;4.90;;;;;;;20.64;66.72;98602.84;5019765;27;105499;-61
2022/06/16 04:45:49;;;;;;;5.28;4.80;;;;;;;20.63;65.38;98609.25;5035425;27;103185;-61
2022/06/16 04:48:21;;;;;;;4.70;4.30;;;;;;;20.77;64.80;98597.75;5028282;27;102748;-61
2022/06/16 04:50:49;;;;;;;5.60;5.10;;;;;;;20.74;66.68;98604.28;5031119;27;102974;-61
2022/06/16 04:53:22;;;;;;;5.07;4.60;;;;;;;21.00;66.02;98606.66;5051524;27;104027;-62
2022/06/16 04:56:13;;;;;;;4.55;4.15;;;;;;;21.08;66.06;98606.63;5027519;27;103177;-61
2022/06/16 04:59:13;;;;;;;4.80;4.40;;;;;;;21.19;65.85;98608.88;4990494;27;102967;-61
2022/06/16 05:02:13;;;;;;;6.97;6.28;;;;;;;20.89;66.69;98601.69;5018005;27;104799;-61
2022/06/16 05:05:20;;;;;;;5.70;4.85;;;;;;;21.18;63.89;98609.91;4955087;28;103520;-65
2022/06/16 05:08:00;;;;;;;6.60;5.22;;;;;;;21.25;62.61;98608.16;4966757;28;103815;-61
2022/06/16 05:10:56;;;;;;;5.95;4.65;;;;;;;21.37;62.87;98620.16;5000968;27;102825;-61
2022/06/16 05:13:39;;;;;;;5.70;5.20;;;;;;;21.32;62.38;98617.19;5034521;27;104058;-60
2022/06/16 05:16:39;;;;;;;4.13;3.80;;;;;;;21.65;60.94;98624.94;5016684;27;103917;-60
2022/06/16 05:19:11;;;;;;;5.10;4.70;;;;;;;21.61;62.26;98624.50;5034487;27;103211;-60
2022/06/16 05:21:44;;;;;;;5.10;4.60;;;;;;;21.68;61.75;98613.84;5036795;27;102792;-60
2022/06/16 05:24:31;;;;;;;5.47;4.97;;;;;;;21.72;61.19;98609.78;5016493;27;102770;-60
2022/06/16 05:27:18;;;;;;;5.32;4.47;;;;;;;21.82;60.17;98615.72;5024828;27;104476;-60
2022/06/16 05:30:04;;;;;;;3.90;3.55;;;;;;;22.10;60.04;98618.63;5028233;27;104134;-60
2022/06/16 05:32:46;;;;;;;4.30;3.90;;;;;;;22.29;59.21;98621.59;5028708;27;102722;-59
2022/06/16 05:35:32;;;;;;;4.43;4.03;;;;;;;22.56;57.65;98624.63;5021658;27;104003;-60
2022/06/16 05:38:29;;;;;;;3.95;3.65;;;;;;;22.79;58.14;98636.13;5022555;27;104128;-60
2022/06/16 05:41:18;;;;;;;4.63;4.22;;;;;;;22.87;58.35;98633.31;5021919;27;103838;-61
2022/06/16 05:44:06;;;;;;;4.70;4.30;;;;;;;22.95;58.46;98636.75;5025555;27;102632;-62
2022/06/16 05:46:52;;;;;;;4.40;4.00;;;;;;;23.17;57.15;98636.75;5017391;27;103530;-60
2022/06/16 05:49:24;;;;;;;3.97;3.58;;;;;;;23.23;57.19;98639.50;5021716;27;103533;-68
2022/06/16 05:51:56;;;;;;;4.22;3.88;;;;;;;23.21;56.31;98646.97;5031203;27;103580;-69
2022/06/16 05:54:31;;;;;;;3.72;3.42;;;;;;;23.28;55.36;98653.22;5024211;27;103264;-61
2022/06/16 05:57:00;;;;;;;4.95;4.25;;;;;;;23.20;55.45;98650.66;5019478;27;103261;-69
2022/06/16 05:59:30;;;;;;;5.43;4.68;;;;;;;22.62;57.53;98653.50;5032128;27;105850;-70
2022/06/16 06:01:59;;;;;;;4.13;3.80;;;;;;;22.64;55.83;98656.84;5031281;27;105203;-61
2022/06/16 06:04:30;;;;;;;4.30;3.90;;;;;;;22.92;56.83;98652.44;5026400;27;103189;-60
2022/06/16 06:06:59;;;;;;;4.37;3.97;;;;;;;23.04;54.86;98661.69;5024105;27;102876;-61
2022/06/16 06:18:03;;;;;;;6.35;4.13;;;;;;;23.07;51.53;98651.34;5037314;27;103150;-60
2022/06/16 06:20:31;;;;;;;4.63;4.10;;;;;;;22.86;52.44;98658.56;5023977;27;103262;-61
2022/06/16 06:22:59;;;;;;;4.60;4.20;;;;;;;22.84;53.33;98655.25;5030537;27;103477;-62
2022/06/16 06:25:28;;;;;;;3.60;3.28;;;;;;;23.50;52.51;98646.00;5026742;27;103139;-62
2022/06/16 06:27:56;;;;;;;3.35;3.10;;;;;;;23.89;52.17;98640.13;5018676;27;104435;-61
2022/06/16 06:30:28;;;;;;;4.18;3.47;;;;;;;24.07;52.05;98645.84;5029664;27;103285;-60
2022/06/16 06:33:00;;;;;;;4.10;3.70;;;;;;;23.78;51.98;98637.94;5022945;27;104146;-60
2022/06/16 06:35:28;;;;;;;3.40;3.10;;;;;;;24.13;49.10;98647.78;5028530;27;102767;-60
2022/06/16 06:37:57;;;;;;;4.35;3.38;;;;;;;24.24;48.62;98649.91;5022424;27;104086;-60
2022/06/16 06:40:29;;;;;;;4.60;3.70;;;;;;;24.33;49.39;98648.72;5030560;27;103897;-61
2022/06/16 06:42:56;;;;;;;3.88;3.45;;;;;;;23.91;50.22;98662.31;5027509;27;102972;-61
2022/06/16 06:45:26;;;;;;;4.23;3.93;;;;;;;23.87;51.00;98666.44;5025593;27;102819;-61
2022/06/16 06:47:54;;;;;;;5.40;3.40;;;;;;;23.86;49.78;98672.88;5033747;27;102894;-61
2022/06/16 06:50:25;;;;;;;3.50;3.20;;;;;;;23.94;49.54;98664.63;5011330;27;103987;-61
2022/06/16 06:52:54;;;;;;;4.03;3.70;;;;;;;23.81;49.42;98669.91;5026491;27;103339;-61
2022/06/16 06:55:23;;;;;;;5.43;3.78;;;;;;;23.89;49.41;98665.19;5029504;27;102772;-69
2022/06/16 06:57:53;;;;;;;3.90;3.40;;;;;;;24.65;46.86;98653.44;5032282;27;102800;-69
2022/06/16 07:00:23;;;;;;;3.67;3.38;;;;;;;24.73;46.45;98666.78;5029811;27;103338;-61
2022/06/16 07:02:52;;;;;;;4.85;3.80;;;;;;;24.65;48.21;98675.06;5023903;27;104623;-61
2022/06/16 07:05:20;;;;;;;3.70;3.40;;;;;;;24.44;49.58;98667.06;5021054;27;102673;-69
2022/06/16 07:07:48;;;;;;;4.10;3.60;;;;;;;24.81;48.55;98683.91;5027831;27;104026;-70
2022/06/16 07:10:18;;;;;;;4.43;4.03;;;;;;;24.22;50.53;98685.19;5028210;27;104017;-69
2022/06/16 07:12:46;;;;;;;6.20;4.30;;;;;;;24.35;51.38;98689.84;5021228;27;103311;-69
2022/06/16 07:15:15;;;;;;;6.17;4.40;;;;;;;24.63;50.63;98697.91;5028809;27;102868;-69
2022/06/16 12:49:23;;;;;;;4.32;3.00;;;;;;;31.19;35.08;98868.25;4980134;22;103640;-66
2022/06/16 12:52:01;;;;;;;4.47;2.92;;;;;;;32.11;33.52;98866.41;5012281;27;102782;-68
2022/06/16 12:54:34;;;;;;;3.13;2.80;;;;;;;32.06;33.68;98863.56;5014747;28;103595;-69
2022/06/16 12:57:10;;;;;;;4.37;3.00;;;;;;;32.14;33.50;98863.19;4992632;28;104529;-67
2022/06/16 12:59:45;;;;;;;3.25;2.95;;;;;;;32.08;33.56;98862.25;5019861;27;102767;-68
2022/06/16 13:02:17;;;;;;;3.97;3.00;;;;;;;32.16;33.93;98862.94;4998167;28;103233;-69
2022/06/16 13:04:48;;;;;;;3.67;2.75;;;;;;;32.52;32.77;98873.41;5021206;28;104445;-69
2022/06/16 13:07:20;;;;;;;3.45;2.80;;;;;;;32.61;31.96;98858.28;5020405;27;103277;-69
2022/06/16 13:09:48;;;;;;;4.50;3.00;;;;;;;32.79;31.92;98870.88;5000791;27;102791;-69
2022/06/16 13:12:21;;;;;;;3.28;2.75;;;;;;;33.22;32.92;98865.53;4990375;28;102947;-69
2022/06/16 13:14:54;;;;;;;3.40;2.90;;;;;;;31.67;32.53;98883.50;5016177;27;103221;-69
2022/06/16 13:17:27;;;;;;;5.50;3.05;;;;;;;32.04;32.60;98876.66;4996696;28;104577;-65
2022/06/16 13:20:01;;;;;;;3.60;2.70;;;;;;;31.37;32.70;98876.31;5013429;28;102651;-68
2022/06/16 13:22:35;;;;;;;4.30;2.58;;;;;;;32.40;31.84;98880.84;5011838;28;103712;-68
2022/06/16 13:25:08;;;;;;;3.78;2.65;;;;;;;32.77;30.07;98881.22;5006253;28;103294;-68
2022/06/16 13:27:43;;;;;;;3.17;2.55;;;;;;;32.33;30.81;98883.75;5014339;28;103237;-66
2022/06/16 13:30:22;;;;;;;7.35;4.85;;;;;;;32.20;31.12;98888.72;5008865;28;104448;-67
2022/06/16 13:33:27;;;;;;;4.85;2.88;;;;;;;32.61;31.05;98889.22;5001004;28;102990;-68
2022/06/16 13:36:32;;;;;;;3.30;2.67;;;;;;;32.81;30.83;98879.66;4984085;28;104632;-67
2022/06/16 13:39:02;;;;;;;3.77;2.80;;;;;;;32.43;30.89;98892.13;5006793;28;103205;-70
2022/06/16 13:41:42;;;;;;;3.70;2.80;;;;;;;32.57;30.82;98893.50;5010038;28;102751;-70
2022/06/16 13:44:24;;;;;;;4.13;3.22;;;;;;;31.25;32.49;98902.78;4996595;28;102969;-69
2022/06/16 13:47:21;;;;;;;5.03;3.00;;;;;;;31.06;33.48;98895.81;5017303;27;102968;-69
2022/06/16 13:50:18;;;;;;;5.50;3.20;;;;;;;32.16;31.45;98891.09;5009491;28;103317;-69
2022/06/16 13:53:01;;;;;;;4.00;2.80;;;;;;;31.29;32.15;98890.34;5011151;27;102703;-70
2022/06/16 13:55:32;;;;;;;3.83;2.77;;;;;;;32.18;31.43;98888.94;4995319;28;104332;-70
2022/06/16 13:58:17;;;;;;;4.47;3.10;;;;;;;31.14;31.85;98889.97;5014769;28;103303;-72
2022/06/16 14:01:01;;;;;;;4.97;3.20;;;;;;;31.66;33.14;98887.34;5011215;28;103197;-71
2022/06/16 14:03:30;;;;;;;3.85;3.40;;;;;;;31.69;32.88;98879.50;4988030;27;102773;-71
2022/06/16 14:06:06;;;;;;;4.07;3.23;;;;;;;31.37;33.66;98889.97;4987103;28;104266;-70
2022/06/16 14:08:37;;;;;;;4.20;3.40;;;;;;;30.82;34.27;98900.38;5004721;28;104077;-72
2022/06/16 14:11:22;;;;;;;3.20;2.90;;;;;;;30.37;34.10;98899.25;5008707;27;103253;-71
2022/06/16 14:14:14;;;;;;;3.70;2.80;;;;;;;31.11;32.65;98897.81;5003742;28;103063;-71
2022/06/16 14:16:44;;;;;;;4.30;3.00;;;;;;;31.75;32.42;98894.06;5013104;27;102899;-74
2022/06/16 14:19:25;;;;;;;4.50;3.30;;;;;;;30.62;33.36;98890.88;5021054;28;103770;-70
2022/06/16 14:22:01;;;;;;;5.30;3.50;;;;;;;31.26;33.56;98879.06;5015129;28;103213;-71
2022/06/16 14:24:46;;;;;;;6.38;3.45;;;;;;;31.42;33.09;98879.16;5017461;27;103735;-71
2022/06/16 14:27:25;;;;;;;3.88;3.17;;;;;;;30.79;34.36;98892.69;5017510;28;103180;-70
2022/06/16 14:29:54;;;;;;;6.43;3.20;;;;;;;30.05;34.33;98887.72;5018861;27;103863;-72
2022/06/16 14:32:26;;;;;;;7.13;3.07;;;;;;;30.36;35.51;98892.09;5012601;28;103310;-71
2022/06/16 14:35:03;;;;;;;6.65;3.25;;;;;;;31.07;34.71;98880.28;5012098;28;103141;-68
2022/06/16 14:37:36;;;;;;;5.30;3.20;;;;;;;31.13;33.80;98888.31;5012519;27;103117;-68
2022/06/16 14:40:14;;;;;;;6.60;3.60;;;;;;;31.08;33.39;98882.75;5012810;28;103062;-67
2022/06/16 14:42:46;;;;;;;4.25;3.85;;;;;;;30.98;32.68;98888.81;4992244;28;104498;-67
2022/06/16 14:45:24;;;;;;;3.42;3.08;;;;;;;31.02;32.88;98878.22;5014620;28;103036;-67
2022/06/16 14:48:00;;;;;;;6.30;3.15;;;;;;;30.79;32.58;98889.97;5008965;28;102729;-66
2022/06/16 14:50:33;;;;;;;5.88;2.80;;;;;;;30.15;33.41;98892.63;4988753;28;104904;-67
2022/06/16 14:53:07;;;;;;;3.30;2.97;;;;;;;29.94;32.48;98880.34;5011830;28;103351;-66
2022/06/16 14:55:49;;;;;;;3.80;2.70;;;;;;;30.67;32.32;98880.09;5016720;28;102782;-67
2022/06/16 14:58:18;;;;;;;4.60;2.97;;;;;;;29.85;34.09;98887.16;5015270;28;104209;-66
2022/06/16 15:00:49;;;;;;;5.03;3.10;;;;;;;29.82;32.86;98879.44;5012533;28;104435;-66
2022/06/16 15:03:19;;;;;;;4.63;2.67;;;;;;;29.86;33.48;98883.38;5014457;28;103192;-66
2022/06/16 15:05:49;;;;;;;4.47;2.70;;;;;;;30.42;32.56;98889.31;5006015;28;102904;-66
2022/06/16 15:08:28;;;;;;;4.57;2.67;;;;;;;30.31;32.51;98892.81;5012950;28;104354;-66
2022/06/16 15:11:01;;;;;;;4.20;2.67;;;;;;;30.55;31.78;98888.25;5012775;28;104199;-66
2022/06/16 15:13:34;;;;;;;4.88;2.90;;;;;;;30.91;32.39;98874.41;5012668;28;103183;-66
2022/06/16 15:16:06;;;;;;;3.23;2.97;;;;;;;30.16;32.92;98877.94;5013452;28;102905;-66
2022/06/16 15:18:38;;;;;;;4.68;2.90;;;;;;;30.62;31.87;98877.25;5015438;28;103840;-66
2022/06/16 15:21:12;;;;;;;5.67;2.90;;;;;;;30.67;32.82;98880.94;4995275;28;104292;-66
2022/06/16 15:23:43;;;;;;;4.10;2.60;;;;;;;30.82;32.22;98884.00;5014866;28;103160;-66
2022/06/16 15:26:22;;;;;;;3.85;2.70;;;;;;;30.53;33.13;98884.09;5012854;28;102983;-67
2022/06/16 15:28:54;;;;;;;3.53;3.10;;;;;;;30.21;32.98;98887.06;5017718;28;104027;-67
2022/06/16 15:31:24;;;;;;;3.90;2.95;;;;;;;30.36;31.60;98884.75;5013043;28;103831;-66
2022/06/16 15:36:42;;;;;;;3.40;2.80;;;;;;;30.37;33.87;98889.16;5012559;28;102761;-68
2022/06/16 15:39:13;;;;;;;3.03;2.75;;;;;;;30.53;33.79;98878.66;5014167;28;102730;-67
2022/06/16 15:41:45;;;;;;;3.67;3.03;;;;;;;30.87;32.61;98880.59;4995406;28;103320;-67
2022/06/16 15:44:20;;;;;;;3.50;2.90;;;;;;;30.02;33.58;98869.13;4998958;28;103403;-67
2022/06/16 15:46:51;;;;;;;6.40;2.90;;;;;;;29.77;34.05;98879.28;5018346;28;102660;-67
2022/06/16 15:49:24;;;;;;;3.25;2.95;;;;;;;29.48;33.75;98875.44;5010040;27;103777;-67
2022/06/16 15:51:54;;;;;;;4.45;3.30;;;;;;;29.59;34.61;98871.97;5017288;28;103976;-67
2022/06/16 15:54:24;;;;;;;4.78;3.10;;;;;;;29.90;33.77;98868.22;5019262;28;103208;-66
2022/06/16 15:56:58;;;;;;;3.78;2.60;;;;;;;29.94;34.28;98874.06;5015096;28;102887;-67
2022/06/16 15:59:26;;;;;;;5.35;2.70;;;;;;;29.51;34.27;98879.59;5012984;28;102677;-67
2022/06/16 16:01:55;;;;;;;3.80;2.83;;;;;;;29.38;33.42;98868.88;4991535;28;104210;-66
2022/06/16 16:04:26;;;;;;;4.22;2.97;;;;;;;29.87;33.40;98876.88;5017325;28;103230;-67
2022/06/16 16:06:55;;;;;;;3.47;2.50;;;;;;;29.61;32.36;98869.03;4977958;28;102688;-67
2022/06/16 16:09:26;;;;;;;2.88;2.35;;;;;;;30.08;32.22;98870.94;5010509;28;103839;-67
2022/06/16 16:12:06;;;;;;;4.72;2.63;;;;;;;29.43;32.36;98869.88;5013920;28;103663;-67
2022/06/16 16:14:57;;;;;;;2.97;2.60;;;;;;;29.53;31.67;98872.06;5000187;28;104414;-67
2022/06/16 16:17:52;;;;;;;3.47;2.45;;;;;;;29.43;32.62;98877.19;5021441;28;102677;-67
2022/06/16 16:20:29;;;;;;;3.93;2.43;;;;;;;29.72;31.87;98881.88;5013319;28;102991;-67
2022/06/16 16:23:00;;;;;;;3.65;2.63;;;;;;;28.96;32.20;98882.28;5014223;28;104142;-68
2022/06/16 16:25:30;;;;;;;4.33;2.70;;;;;;;29.30;32.01;98870.88;5009706;28;104010;-69
2022/06/16 16:27:59;;;;;;;5.63;3.10;;;;;;;29.59;32.14;98879.28;5011742;27;102998;-70
2022/06/16 16:30:32;;;;;;;5.93;3.37;;;;;;;29.35;31.90;98874.78;5015274;27;103158;-69
2022/06/16 16:33:06;;;;;;;7.20;5.40;;;;;;;29.16;31.96;98882.06;5016579;28;103617;-69
2022/06/16 16:35:34;;;;;;;4.40;3.85;;;;;;;28.72;31.67;98888.53;5013492;28;103174;-69
2022/06/16 16:38:18;;;;;;;3.88;3.03;;;;;;;29.62;31.55;98881.56;5003725;28;103449;-69
2022/06/16 16:43:43;;;;;;;3.35;2.50;;;;;;;29.81;31.10;98891.41;5014783;28;103471;-69
2022/06/16 16:46:20;;;;;;;2.97;2.33;;;;;;;29.98;30.79;98886.97;5015577;27;103196;-69
2022/06/16 16:48:50;;;;;;;4.13;2.40;;;;;;;29.97;30.16;98892.66;4996803;28;102887;-67
2022/06/16 16:51:19;;;;;;;3.50;3.20;;;;;;;29.15;30.69;98894.84;4995827;28;103074;-67
2022/06/16 16:53:51;;;;;;;3.83;2.70;;;;;;;29.41;31.25;98895.63;4997010;28;103260;-67
2022/06/16 16:56:31;;;;;;;3.58;2.20;;;;;;;29.73;31.09;98891.69;5018608;28;103197;-68
2022/06/16 16:59:02;;;;;;;3.57;3.13;;;;;;;29.49;31.13;98904.34;5013458;28;102691;-67
2022/06/16 17:01:32;;;;;;;4.55;3.40;;;;;;;29.02;30.40;98914.00;5021841;28;102617;-71
2022/06/16 17:04:11;;;;;;;3.50;2.37;;;;;;;29.47;29.83;98911.91;5019295;27;104289;-73
2022/06/16 17:06:39;;;;;;;3.80;2.88;;;;;;;29.51;29.65;98918.53;5022159;28;102955;-72
2022/06/16 17:09:07;;;;;;;2.15;1.80;;;;;;;29.73;29.90;98918.91;5019274;28;102874;-68
2022/06/16 17:11:54;;;;;;;2.50;1.90;;;;;;;29.77;30.16;98912.78;5011409;28;104271;-68
2022/06/16 17:14:26;;;;;;;3.95;2.53;;;;;;;29.30;30.31;98922.56;5009379;28;105099;-66
2022/06/16 17:16:57;;;;;;;6.07;2.53;;;;;;;29.26;30.37;98924.06;5015208;28;103270;-70
2022/06/16 17:19:28;;;;;;;4.95;3.08;;;;;;;29.03;30.31;98925.69;5018335;28;102839;-72
2022/06/16 17:21:56;;;;;;;5.03;2.30;;;;;;;28.93;30.51;98937.09;5016437;28;102836;-70
2022/06/16 17:24:27;;;;;;;3.73;2.73;;;;;;;28.84;30.27;98933.00;5015443;27;103320;-72
2022/06/16 17:27:00;;;;;;;3.03;2.20;;;;;;;28.85;30.13;98929.22;5015124;28;103224;-72
2022/06/16 17:29:29;;;;;;;6.35;4.07;;;;;;;28.61;29.79;98940.88;4994963;28;102919;-72
2022/06/16 17:31:58;;;;;;;2.72;2.42;;;;;;;28.82;29.73;98934.28;4996465;28;103092;-72
2022/06/16 17:34:30;;;;;;;6.32;5.72;;;;;;;28.65;29.27;98939.41;5016640;28;103240;-73
2022/06/16 17:36:59;;;;;;;3.60;2.80;;;;;;;28.33;29.42;98940.44;5017137;28;103263;-73
2022/06/16 17:39:29;;;;;;;3.65;3.35;;;;;;;28.40;29.66;98941.25;5010554;28;102764;-72
2022/06/16 17:41:58;;;;;;;3.70;3.10;;;;;;;28.26;30.21;98950.53;5013523;28;104167;-73
2022/06/16 17:44:27;;;;;;;3.00;2.17;;;;;;;28.30;30.39;98954.44;4987810;28;103224;-73
2022/06/16 17:46:57;;;;;;;2.55;2.35;;;;;;;28.64;30.54;98954.06;5012171;28;103435;-73
2022/06/16 17:49:25;;;;;;;3.35;2.22;;;;;;;28.59;30.04;98945.69;5000503;27;102876;-76